Santa Cruz, CA

9:52 AM PDT on September 05, 2015 (GMT -0700)
Lower Escalona | | Change Station
CLOSE
Current Station
Personal Weather Station
Location: Santa Cruz, CA
Elevation: 157 ft
Nearby Weather Stations
Active Advisory: Beach Hazard Statement

Elev 157 ft 36.98 °N, 122.04 °W | Updated 2 minutes ago

Clear
Clear
68.1 °F
Feels Like 68.1 °F
N
0.0
Wind Variable Wind from North
Gusts 1.0 mph

Today
High -- | Low -- °F
--% Chance of Precip.
Yesterday
High -- | Low -- °F
Precip. -- in
6:42 AM 7:30 PM
Waning Gibbous, 47% visible
Pressure 29.97 in
Visibility 10.0 miles
Clouds Clear
Dew Point 54 °F
Humidity 60%
Rainfall 0.00 in
Snow Depth Not available.
UV 2 out of 12
Pollen 8.90 out of 12
Air Quality Not available.
Flu Activity Not available.
METAR KWVI 051553Z AUTO 13005KT 10SM CLR 17/11 A2997 RMK AO2 SLP149 T01670106
Pressure 29.97 in
Visibility 10.0 miles
Clouds Clear
Dew Point 54 °F
Humidity 60%
Rainfall 0.00 in
Snow Depth Not available.
UV 2 out of 12
Pollen 8.90 out of 12
Air Quality Not available.
Flu Activity Not available.
METAR KWVI 051553Z AUTO 13005KT 10SM CLR 17/11 A2997 RMK AO2 SLP149 T01670106

10-Day Weather Forecast

×

Almanac

Astronomy

Sep. 05, 2015 Rise Set
Actual Time
Civil Twilight
Nautical Twilight
Astronomical Twilight
Moon
Length of Visible Light
Length of Day
Tomorrow will be .
, % of the Moon is Illuminated

Today's Extremes

State Highs State Lows

Community

WunderPhotos

Upload Photos

1,852,498 photos uploaded!

WunderBlogs® & News

Nearby

Air Quality

  Air Quality AQ Index Pollutant
Not available.

Snow Depth

Station Depth Elevation

Earthquake Activity

City Distance Mag. Time & Date
Minimum magnitude displayed is 2.5.

Coastal Water Temperatures

Place Temperature

Stations

Nearby Weather Stations

Station Location Temp. Windchill Dew Point Humidity Wind Precip. Elev Updated Type
                   
Beach Hazard Statement
Statement as of 6:13 AM PDT on September 05, 2015

... Beach hazards statement remains in effect through Monday
evening...

* location... all south and southwest facing beaches from Sonoma
County through Monterey County... including Sonoma coast State
Park beaches... Stinson Beach... Muir Beach... Natural Bridges
beach... Santa Cruz boardwalk beach... Twin Lakes Beach... and
Pfeiffer Beach.

* Timing... long period forerunners will move into the region
later today and tonight. Swell will build early Saturday
morning... peaking between 3 and 5 feet... with locally larger
waves through Monday evening.

* Impacts... dangerous rip currents... large shore breaks... and
sneaker waves.

Precautionary/preparedness actions... a beach hazard statement
means the potentially dangerous conditions may exist on specific
beaches. These hazards may include large shore break... strong rip
currents... strong longshore currents and possibly sneaker waves.
All of which could be life threatening. Be sure to always keep
your eyes on the ocean.




Http://www.Weather.Gov/sanfrancisco